createdAt,value
2022-08-28T00:00:12.711Z,5.40
2022-08-28T00:02:39.827Z,5.87
2022-08-28T00:05:08.241Z,5.77
2022-08-28T00:07:35.276Z,6.03
2022-08-28T00:10:01.965Z,5.43
2022-08-28T00:12:28.889Z,5.37
2022-08-28T00:14:55.549Z,6.23
2022-08-28T00:19:50.312Z,5.37
2022-08-28T00:22:17.080Z,5.70
2022-08-28T00:24:44.642Z,5.70
2022-08-28T00:27:30.822Z,5.93
2022-08-28T00:29:57.518Z,5.80
2022-08-28T00:32:25.224Z,5.33
2022-08-28T00:34:52.163Z,5.27
2022-08-28T00:37:19.120Z,5.57
2022-08-28T00:39:46.421Z,5.63
2022-08-28T00:42:14.205Z,5.43
2022-08-28T00:44:41.262Z,5.60
2022-08-28T00:47:08.557Z,5.10
2022-08-28T00:49:37.838Z,5.87
2022-08-28T00:52:08.086Z,5.20
2022-08-28T00:57:27.054Z,5.43
2022-08-28T00:59:53.949Z,5.40
2022-08-28T01:02:21.380Z,5.30
2022-08-28T01:04:48.627Z,4.97
2022-08-28T01:07:17.105Z,5.60
2022-08-28T01:09:47.025Z,5.30
2022-08-28T01:12:23.224Z,5.30
2022-08-28T01:14:51.399Z,5.47
2022-08-28T01:17:20.999Z,5.97
2022-08-28T01:19:56.490Z,5.60
2022-08-28T01:22:39.255Z,5.73
2022-08-28T01:25:13.206Z,5.47
2022-08-28T01:27:42.101Z,5.63
2022-08-28T01:30:15.123Z,5.80
2022-08-28T01:32:45.464Z,5.23
2022-08-28T01:35:15.331Z,6.00
2022-08-28T01:37:42.602Z,5.20
2022-08-28T01:40:11.009Z,5.70
2022-08-28T01:42:39.379Z,5.80
2022-08-28T01:45:11.219Z,5.37
2022-08-28T01:47:38.919Z,5.97
2022-08-28T01:50:07.478Z,5.83
2022-08-28T01:52:34.238Z,5.73
2022-08-28T01:55:01.497Z,6.00
2022-08-28T01:57:32.131Z,5.77
2022-08-28T02:00:00.000Z,5.97
2022-08-28T02:02:26.893Z,5.70
2022-08-28T02:04:53.935Z,5.83
2022-08-28T02:07:20.732Z,5.87
2022-08-28T02:09:47.653Z,5.97
2022-08-28T02:12:14.686Z,5.67
2022-08-28T02:14:41.409Z,6.17
2022-08-28T02:17:08.066Z,5.73
2022-08-28T02:19:34.814Z,6.00
2022-08-28T02:22:01.609Z,5.80
2022-08-28T02:24:28.393Z,5.83
2022-08-28T02:26:55.185Z,5.90
2022-08-28T02:29:22.035Z,6.37
2022-08-28T02:31:48.728Z,6.07
2022-08-28T02:34:15.518Z,6.20
2022-08-28T02:36:42.669Z,5.90
2022-08-28T02:39:09.541Z,5.87
2022-08-28T02:41:36.490Z,6.57
2022-08-28T02:44:03.740Z,6.43
2022-08-28T02:46:30.616Z,6.47
2022-08-28T02:48:57.355Z,5.87
2022-08-28T02:51:24.152Z,5.93
2022-08-28T02:53:52.185Z,5.87
2022-08-28T02:56:18.955Z,6.63
2022-08-28T02:58:45.770Z,6.73
2022-08-28T03:01:13.571Z,6.53
2022-08-28T03:03:41.494Z,6.00
2022-08-28T03:06:09.817Z,6.70
2022-08-28T03:08:36.638Z,6.53
2022-08-28T03:11:03.623Z,6.57
2022-08-28T03:13:30.539Z,6.40
2022-08-28T03:15:57.787Z,6.43
2022-08-28T03:18:30.301Z,7.20
2022-08-28T03:20:57.411Z,6.57
2022-08-28T03:23:27.221Z,6.73
2022-08-28T03:25:55.189Z,6.97
2022-08-28T03:28:22.058Z,6.37
2022-08-28T03:30:49.708Z,6.43
2022-08-28T03:33:17.029Z,6.53
2022-08-28T03:35:43.861Z,6.80
2022-08-28T03:38:11.902Z,6.33
2022-08-28T03:40:43.168Z,6.23
2022-08-28T03:43:16.423Z,6.67
2022-08-28T03:45:58.959Z,6.87
2022-08-28T03:48:28.653Z,6.23
2022-08-28T03:50:55.799Z,6.83
2022-08-28T03:53:25.073Z,5.90
2022-08-28T03:55:52.032Z,6.70
2022-08-28T03:58:19.402Z,6.57
2022-08-28T04:00:46.864Z,7.60
2022-08-28T04:03:13.801Z,6.33
2022-08-28T04:05:41.991Z,6.73
2022-08-28T04:08:09.378Z,6.23
2022-08-28T04:10:36.742Z,6.70
2022-08-28T04:13:03.975Z,6.10
2022-08-28T04:15:30.712Z,6.90
2022-08-28T04:17:57.457Z,6.97
2022-08-28T04:20:24.247Z,6.80
2022-08-28T04:22:55.073Z,6.50
2022-08-28T04:25:22.741Z,6.07
2022-08-28T04:27:51.019Z,6.20
2022-08-28T04:30:18.809Z,6.20
2022-08-28T04:32:45.696Z,6.33
2022-08-28T04:35:14.433Z,6.87
2022-08-28T04:37:43.737Z,6.60
2022-08-28T04:40:11.910Z,6.17
2022-08-28T04:42:40.150Z,6.40
2022-08-28T04:45:07.872Z,5.93
2022-08-28T04:47:38.914Z,6.30
2022-08-28T04:50:07.396Z,6.47
2022-08-28T04:52:34.445Z,6.13
2022-08-28T04:55:01.699Z,7.17
2022-08-28T04:57:29.795Z,6.20
2022-08-28T04:59:58.976Z,6.40
2022-08-28T05:02:25.817Z,7.03
2022-08-28T05:04:52.842Z,6.33
2022-08-28T05:07:19.516Z,6.57
2022-08-28T05:09:46.245Z,6.30
2022-08-28T05:12:17.228Z,6.67
2022-08-28T05:14:46.464Z,6.17
2022-08-28T05:17:14.343Z,6.77
2022-08-28T05:19:41.891Z,5.93
2022-08-28T05:22:09.940Z,6.30
2022-08-28T05:24:38.134Z,5.90
2022-08-28T05:27:05.085Z,5.40
2022-08-28T05:29:31.814Z,6.10
2022-08-28T05:31:58.593Z,5.77
2022-08-28T05:34:25.618Z,6.13
2022-08-28T05:36:52.437Z,6.70
2022-08-28T05:39:19.229Z,6.00
2022-08-28T05:41:46.383Z,5.47
2022-08-28T05:44:15.443Z,6.07
2022-08-28T05:46:44.577Z,6.27
2022-08-28T05:49:13.144Z,5.57
2022-08-28T05:51:41.745Z,5.67
2022-08-28T05:54:08.831Z,6.00
2022-08-28T05:56:38.581Z,5.70
2022-08-28T05:59:09.160Z,5.87
2022-08-28T06:01:40.450Z,5.63
2022-08-28T06:04:17.678Z,6.03
2022-08-28T06:06:44.843Z,6.47
2022-08-28T06:09:29.367Z,6.00
2022-08-28T06:11:59.044Z,5.60
2022-08-28T06:14:26.153Z,6.00
2022-08-28T06:16:54.754Z,5.50
2022-08-28T06:19:23.387Z,5.03
2022-08-28T06:21:52.942Z,5.60
2022-08-28T06:37:49.603Z,5.90
2022-08-28T06:40:16.468Z,5.33
2022-08-28T06:42:43.192Z,6.03
2022-08-28T06:45:10.393Z,6.27
2022-08-28T06:47:37.056Z,6.93
2022-08-28T06:50:04.255Z,6.80
2022-08-28T06:52:31.198Z,6.80
2022-08-28T06:54:58.119Z,6.60
2022-08-28T06:57:26.077Z,6.33
2022-08-28T06:59:57.407Z,6.73
2022-08-28T07:02:24.321Z,6.27
2022-08-28T07:04:55.165Z,6.00
2022-08-28T07:07:32.707Z,5.70
2022-08-28T07:09:59.537Z,5.53
2022-08-28T07:12:26.246Z,5.43
2022-08-28T07:14:53.020Z,5.90
2022-08-28T07:17:19.851Z,5.80
2022-08-28T07:19:46.949Z,5.87
2022-08-28T07:22:13.662Z,6.47
2022-08-28T07:24:40.603Z,6.47
2022-08-28T07:27:08.802Z,5.63
2022-08-28T07:29:35.615Z,6.87
2022-08-28T07:32:03.887Z,7.27
2022-08-28T07:34:31.040Z,6.60
2022-08-28T07:37:04.059Z,6.20
2022-08-28T07:39:30.834Z,6.50
2022-08-28T07:41:57.535Z,6.90
2022-08-28T07:44:43.139Z,5.87
2022-08-28T07:47:11.576Z,6.00
2022-08-28T07:49:38.795Z,6.50
2022-08-28T07:52:07.042Z,6.50
2022-08-28T07:54:36.072Z,7.10
2022-08-28T07:57:07.027Z,6.97
2022-08-28T07:59:36.885Z,6.73
2022-08-28T08:02:04.503Z,6.53
2022-08-28T08:04:31.540Z,7.60
2022-08-28T08:06:58.439Z,7.00
2022-08-28T08:09:26.048Z,7.17
2022-08-28T08:11:54.745Z,6.47
2022-08-28T08:14:21.984Z,6.90
2022-08-28T08:16:49.012Z,7.17
2022-08-28T08:19:16.647Z,6.33
2022-08-28T08:21:45.182Z,5.10
2022-08-28T08:24:17.977Z,6.20
2022-08-28T08:27:00.298Z,7.10
2022-08-28T08:29:35.977Z,6.77
2022-08-28T08:32:07.041Z,7.27
2022-08-28T08:34:36.588Z,6.23
2022-08-28T08:37:03.764Z,6.87
2022-08-28T08:39:31.723Z,6.03
2022-08-28T08:41:59.980Z,5.23
2022-08-28T08:44:33.577Z,6.00
2022-08-28T08:47:03.946Z,5.53
2022-08-28T08:49:36.049Z,6.30
2022-08-28T08:52:11.747Z,6.70
2022-08-28T08:54:43.430Z,6.33
2022-08-28T08:57:14.967Z,7.47
2022-08-28T08:59:42.318Z,6.83
2022-08-28T09:02:15.408Z,7.50
2022-08-28T09:04:53.824Z,7.00
2022-08-28T09:07:44.770Z,6.83
2022-08-28T09:10:13.659Z,6.33
2022-08-28T09:13:02.645Z,5.87
2022-08-28T09:15:35.975Z,6.33
2022-08-28T09:18:18.821Z,6.07
2022-08-28T09:20:50.063Z,5.87
2022-08-28T09:23:16.766Z,7.23
2022-08-28T09:25:47.519Z,7.10
2022-08-28T09:28:24.915Z,6.97
2022-08-28T09:31:04.945Z,6.00
2022-08-28T09:33:31.974Z,6.37
2022-08-28T09:35:58.917Z,5.90
2022-08-28T09:38:28.148Z,6.70
2022-08-28T09:41:28.418Z,6.00
2022-08-28T09:43:55.502Z,6.10
2022-08-28T09:46:28.111Z,5.63
2022-08-28T09:49:11.915Z,5.90
2022-08-28T09:51:39.825Z,5.83
2022-08-28T09:54:09.000Z,5.83
2022-08-28T09:56:39.838Z,5.67
2022-08-28T09:59:10.427Z,5.63
2022-08-28T10:01:44.876Z,5.77
2022-08-28T10:04:37.535Z,5.33
2022-08-28T10:07:06.420Z,5.40
2022-08-28T10:09:48.008Z,5.47
2022-08-28T10:12:17.493Z,5.40
2022-08-28T10:14:57.105Z,5.80
2022-08-28T10:17:27.787Z,6.10
2022-08-28T10:19:59.694Z,6.03
2022-08-28T10:22:52.699Z,5.63
2022-08-28T10:25:42.878Z,5.43
2022-08-28T10:28:29.494Z,5.30
2022-08-28T10:31:07.709Z,6.40
2022-08-28T10:33:43.452Z,6.30
2022-08-28T10:36:33.209Z,5.90
2022-08-28T10:39:17.998Z,6.60
2022-08-28T10:42:05.148Z,5.67
2022-08-28T10:45:10.457Z,6.13
2022-08-28T10:47:40.428Z,5.80
2022-08-28T10:50:25.437Z,5.30
2022-08-28T10:53:18.647Z,5.50
2022-08-28T10:56:27.277Z,5.50
2022-08-28T10:58:58.975Z,5.10
2022-08-28T11:01:34.583Z,6.07
2022-08-28T11:04:04.285Z,5.27
2022-08-28T11:06:48.109Z,5.40
2022-08-28T11:09:36.501Z,5.80
2022-08-28T11:12:26.245Z,5.67
2022-08-28T11:14:52.935Z,5.67
2022-08-28T11:17:25.726Z,5.77
2022-08-28T11:20:09.830Z,6.03
2022-08-28T11:22:44.474Z,5.37
2022-08-28T11:25:27.665Z,5.37
2022-08-28T11:28:24.380Z,5.50
2022-08-28T11:31:06.274Z,4.93
2022-08-28T11:33:50.711Z,5.73
2022-08-28T11:36:20.352Z,5.10
2022-08-28T11:38:53.542Z,5.37
2022-08-28T11:41:29.689Z,5.20
2022-08-28T11:44:09.106Z,4.97
2022-08-28T11:46:41.280Z,5.87
2022-08-28T11:49:26.309Z,5.60
2022-08-28T11:52:38.259Z,5.70
2022-08-28T11:55:08.507Z,5.83
2022-08-28T11:57:57.537Z,5.83
2022-08-28T12:00:28.863Z,5.13
2022-08-28T12:03:14.868Z,6.03
2022-08-28T12:05:47.351Z,5.00
2022-08-28T12:08:48.913Z,5.50
2022-08-28T12:11:40.489Z,5.07
2022-08-28T12:14:11.335Z,5.27
2022-08-28T12:16:59.517Z,5.23
2022-08-28T12:19:28.850Z,5.37
2022-08-28T12:21:55.791Z,5.70
2022-08-28T12:24:24.423Z,5.37
2022-08-28T12:26:54.696Z,5.30
2022-08-28T12:29:48.539Z,4.90
2022-08-28T12:32:36.680Z,4.90
2022-08-28T12:35:07.583Z,4.50
2022-08-28T12:38:00.059Z,5.00
2022-08-28T12:40:33.502Z,5.13
2022-08-28T12:43:01.059Z,5.00
2022-08-28T12:45:38.271Z,4.93
2022-08-28T12:48:18.602Z,4.87
2022-08-28T12:50:45.594Z,4.87
2022-08-28T12:53:16.296Z,4.63
2022-08-28T12:55:45.838Z,4.80
2022-08-28T12:58:34.044Z,4.93
2022-08-28T13:01:15.033Z,4.80
2022-08-28T13:03:45.246Z,5.00
2022-08-28T13:06:12.636Z,5.03
2022-08-28T13:08:39.863Z,4.60
2022-08-28T13:11:06.993Z,4.60
2022-08-28T13:13:40.116Z,5.40
2022-08-28T13:16:09.343Z,4.40
2022-08-28T13:19:10.728Z,5.55
2022-08-28T13:22:00.579Z,4.95
2022-08-28T13:24:27.385Z,4.70
2022-08-28T13:27:06.460Z,4.40
2022-08-28T13:29:33.782Z,4.50
2022-08-28T13:32:06.571Z,4.65
2022-08-28T13:34:38.272Z,4.55
2022-08-28T13:37:14.939Z,4.72
2022-08-28T13:39:47.352Z,4.25
2022-08-28T13:42:16.450Z,4.30
2022-08-28T13:44:48.727Z,4.00
2022-08-28T13:47:16.232Z,4.22
2022-08-28T13:49:43.192Z,3.78
2022-08-28T13:52:10.641Z,3.78
2022-08-28T13:54:41.580Z,4.07
2022-08-28T13:57:10.656Z,4.38
2022-08-28T13:59:37.372Z,4.00
2022-08-28T14:02:26.295Z,3.90
2022-08-28T14:04:53.713Z,4.70
2022-08-28T14:07:20.473Z,4.00
2022-08-28T14:09:47.307Z,4.38
2022-08-28T14:12:14.163Z,4.47
2022-08-28T14:14:41.045Z,4.38
2022-08-28T14:17:08.540Z,4.10
2022-08-28T14:19:35.523Z,4.00
2022-08-28T14:22:02.492Z,4.10
2022-08-28T14:24:29.527Z,4.00
2022-08-28T14:26:56.306Z,4.00
2022-08-28T14:29:23.087Z,3.65
2022-08-28T14:31:50.283Z,3.92
2022-08-28T14:34:20.015Z,3.70
2022-08-28T14:36:50.816Z,4.15
2022-08-28T14:39:18.033Z,3.92
2022-08-28T14:41:49.304Z,3.72
2022-08-28T14:44:18.205Z,3.63
2022-08-28T14:46:46.973Z,3.75
2022-08-28T14:49:16.116Z,4.18
2022-08-28T14:51:44.129Z,4.10
2022-08-28T14:54:13.121Z,3.42
2022-08-28T14:56:41.728Z,3.88
2022-08-28T15:02:59.941Z,3.97
2022-08-28T15:05:26.824Z,3.50
2022-08-28T15:07:53.697Z,3.80
2022-08-28T15:10:20.744Z,3.50
2022-08-28T15:12:47.911Z,3.80
2022-08-28T15:15:14.696Z,3.97
2022-08-28T15:17:41.457Z,3.67
2022-08-28T15:20:09.001Z,3.70
2022-08-28T15:22:36.401Z,3.30
2022-08-28T15:25:06.791Z,3.25
2022-08-28T15:27:33.693Z,3.70
2022-08-28T15:30:02.272Z,3.65
2022-08-28T15:32:29.088Z,3.42
2022-08-28T15:34:55.883Z,3.60
2022-08-28T15:37:22.673Z,3.65
2022-08-28T15:40:08.271Z,3.47
2022-08-28T15:42:35.016Z,3.47
2022-08-28T15:45:01.812Z,3.30
2022-08-28T15:47:28.507Z,3.33
2022-08-28T15:49:56.502Z,3.72
2022-08-28T15:52:24.759Z,3.50
2022-08-28T15:54:51.471Z,3.67
2022-08-28T15:57:18.553Z,3.45
2022-08-28T15:59:49.365Z,3.70
2022-08-28T16:02:18.076Z,3.50
2022-08-28T16:04:44.828Z,3.78
2022-08-28T16:07:11.553Z,3.15
2022-08-28T16:09:38.443Z,3.70
2022-08-28T16:12:05.671Z,3.55
2022-08-28T16:14:33.111Z,3.63
2022-08-28T16:17:03.941Z,3.40
2022-08-28T16:19:32.909Z,3.72
2022-08-28T16:22:00.251Z,3.90
2022-08-28T16:24:27.022Z,4.07
2022-08-28T16:26:53.838Z,3.70
2022-08-28T16:29:21.021Z,3.83
2022-08-28T16:31:48.795Z,3.70
2022-08-28T16:34:19.605Z,3.45
2022-08-28T16:36:50.362Z,3.88
2022-08-28T16:39:17.530Z,3.80
2022-08-28T16:41:49.739Z,3.90
2022-08-28T16:44:20.667Z,3.90
2022-08-28T16:46:47.548Z,3.97
2022-08-28T16:49:15.020Z,3.60
2022-08-28T16:51:44.931Z,3.95
2022-08-28T16:54:15.631Z,3.78
2022-08-28T16:56:43.191Z,3.85
2022-08-28T16:59:10.759Z,3.92
2022-08-28T17:01:42.631Z,3.45
2022-08-28T17:04:10.256Z,3.60
2022-08-28T17:06:37.175Z,3.40
2022-08-28T17:09:04.092Z,3.75
2022-08-28T17:11:31.121Z,3.85
2022-08-28T17:14:01.225Z,3.65
2022-08-28T17:23:57.312Z,3.40
2022-08-28T17:26:24.971Z,3.38
2022-08-28T17:28:52.175Z,3.58
2022-08-28T17:31:19.302Z,3.15
2022-08-28T17:33:46.211Z,3.63
2022-08-28T17:36:30.745Z,3.47
2022-08-28T17:39:02.278Z,3.42
2022-08-28T17:41:29.500Z,3.50
2022-08-28T17:43:56.406Z,3.40
2022-08-28T17:46:23.340Z,3.60
2022-08-28T17:48:54.327Z,3.42
2022-08-28T17:51:41.831Z,2.97
2022-08-28T17:54:12.507Z,3.30
2022-08-28T17:56:39.364Z,3.42
2022-08-28T17:59:06.148Z,3.53
2022-08-28T18:01:33.256Z,3.23
2022-08-28T18:04:00.260Z,3.35
2022-08-28T18:06:27.147Z,3.80
2022-08-28T18:08:54.585Z,3.10
2022-08-28T18:11:21.278Z,3.47
2022-08-28T18:13:48.077Z,3.15
2022-08-28T18:16:14.954Z,3.22
2022-08-28T18:18:43.028Z,3.50
2022-08-28T18:21:11.097Z,3.40
2022-08-28T18:23:40.021Z,3.35
2022-08-28T18:26:09.920Z,3.53
2022-08-28T18:28:37.122Z,3.63
2022-08-28T18:31:06.422Z,3.50
2022-08-28T18:33:34.258Z,3.60
2022-08-28T18:36:02.098Z,3.53
2022-08-28T18:38:30.014Z,3.70
2022-08-28T18:40:59.054Z,3.70
2022-08-28T18:43:26.053Z,3.50
2022-08-28T18:45:53.041Z,3.60
2022-08-28T18:48:19.961Z,3.55
2022-08-28T18:50:48.012Z,3.50
2022-08-28T18:53:16.434Z,3.40
2022-08-28T18:55:43.447Z,4.23
2022-08-28T18:58:14.000Z,3.53
2022-08-28T19:00:42.689Z,3.73
2022-08-28T19:03:09.903Z,4.10
2022-08-28T19:05:37.495Z,4.00
2022-08-28T19:08:04.478Z,4.07
2022-08-28T19:10:34.498Z,4.00
2022-08-28T19:13:02.133Z,4.63
2022-08-28T19:15:29.333Z,4.57
2022-08-28T19:17:56.666Z,4.30
2022-08-28T19:20:23.504Z,4.63
2022-08-28T19:22:50.245Z,4.40
2022-08-28T19:25:28.663Z,4.70
2022-08-28T19:27:59.796Z,4.57
2022-08-28T19:30:29.440Z,4.40
2022-08-28T19:32:56.294Z,4.30
2022-08-28T19:35:24.207Z,4.63
2022-08-28T19:37:54.683Z,4.10
2022-08-28T19:40:22.158Z,4.43
2022-08-28T19:42:50.134Z,4.20
2022-08-28T19:45:17.988Z,4.23
2022-08-28T19:47:44.949Z,4.70
2022-08-28T19:50:12.854Z,4.27
2022-08-28T19:52:40.154Z,4.40
2022-08-28T19:55:07.673Z,4.87
2022-08-28T19:57:34.979Z,4.50
2022-08-28T20:00:02.328Z,5.43
2022-08-28T20:02:29.274Z,5.20
2022-08-28T20:04:56.117Z,4.63
2022-08-28T20:07:24.388Z,4.40
2022-08-28T20:09:51.929Z,5.13
2022-08-28T20:12:18.821Z,5.00
2022-08-28T20:14:45.725Z,5.13
2022-08-28T20:17:12.415Z,5.10
2022-08-28T20:19:39.342Z,5.20
2022-08-28T20:22:06.180Z,5.20
2022-08-28T20:24:33.125Z,5.70
2022-08-28T20:27:02.700Z,5.63
2022-08-28T20:29:29.545Z,5.53
2022-08-28T20:31:56.492Z,6.17
2022-08-28T20:34:23.598Z,6.10
2022-08-28T20:36:50.490Z,5.87
2022-08-28T20:39:18.126Z,6.03
2022-08-28T20:41:46.031Z,6.33
2022-08-28T20:44:15.450Z,6.13
2022-08-28T20:46:42.492Z,6.60
2022-08-28T20:49:10.998Z,5.87
2022-08-28T20:51:53.355Z,6.10
2022-08-28T20:54:30.455Z,6.23
2022-08-28T20:57:00.060Z,6.20
2022-08-28T20:59:33.410Z,6.37
2022-08-28T21:02:08.067Z,6.47
2022-08-28T21:04:37.035Z,6.07
2022-08-28T21:07:05.562Z,5.93
2022-08-28T21:09:39.513Z,5.87
2022-08-28T21:12:19.880Z,5.90
2022-08-28T21:14:51.472Z,5.50
2022-08-28T21:17:22.644Z,5.80
2022-08-28T21:19:57.305Z,5.67
2022-08-28T21:22:24.003Z,6.10
2022-08-28T21:24:51.061Z,6.03
2022-08-28T21:27:18.671Z,6.17
2022-08-28T21:29:46.159Z,5.70
2022-08-28T21:32:13.079Z,5.53
2022-08-28T21:34:39.899Z,6.13
2022-08-28T21:37:06.616Z,5.70
2022-08-28T21:39:33.684Z,6.03
2022-08-28T21:42:00.509Z,5.87
2022-08-28T21:44:27.399Z,6.00
2022-08-28T21:46:54.379Z,6.07
2022-08-28T21:49:22.700Z,5.90
2022-08-28T21:51:49.991Z,5.90
2022-08-28T21:54:18.184Z,5.80
2022-08-28T21:56:45.529Z,6.27
2022-08-28T21:59:12.344Z,5.47
2022-08-28T22:01:39.212Z,5.40
2022-08-28T22:04:06.334Z,5.87
2022-08-28T22:06:33.488Z,4.90
2022-08-28T22:09:00.616Z,5.73
2022-08-28T22:11:27.559Z,5.23
2022-08-28T22:13:55.784Z,5.47
2022-08-28T22:16:23.990Z,5.33
2022-08-28T22:18:51.119Z,5.20
2022-08-28T22:21:39.378Z,5.60
2022-08-28T22:24:07.328Z,5.03
2022-08-28T22:26:33.993Z,5.13
2022-08-28T22:29:00.972Z,5.40
2022-08-28T22:31:27.723Z,5.10
2022-08-28T22:33:54.673Z,5.50
2022-08-28T22:36:21.822Z,5.17
2022-08-28T22:38:53.474Z,5.33
2022-08-28T22:41:20.758Z,5.20
2022-08-28T22:43:51.534Z,5.00
2022-08-28T22:46:19.381Z,4.97
2022-08-28T22:48:46.307Z,5.47
2022-08-28T22:51:18.329Z,4.93
2022-08-28T22:53:45.527Z,5.17
2022-08-28T22:56:12.832Z,5.20
2022-08-28T22:58:40.174Z,4.90
2022-08-28T23:01:17.948Z,5.00
2022-08-28T23:03:45.113Z,5.33
2022-08-28T23:06:12.142Z,5.30
2022-08-28T23:08:38.987Z,5.00
2022-08-28T23:11:05.864Z,5.33
2022-08-28T23:13:33.185Z,5.50
2022-08-28T23:16:00.308Z,4.97
2022-08-28T23:18:27.768Z,4.83
2022-08-28T23:20:55.238Z,5.07
2022-08-28T23:23:23.598Z,5.03
2022-08-28T23:25:51.080Z,4.97
2022-08-28T23:28:18.845Z,5.40
2022-08-28T23:30:48.475Z,4.97
2022-08-28T23:33:23.698Z,5.17
2022-08-28T23:35:51.797Z,5.50
2022-08-28T23:38:18.732Z,4.77
2022-08-28T23:40:48.038Z,4.93
2022-08-28T23:43:15.115Z,4.87
2022-08-28T23:45:43.814Z,4.93
2022-08-28T23:48:11.044Z,5.07
2022-08-28T23:50:40.709Z,4.90
2022-08-28T23:53:08.412Z,5.10
2022-08-28T23:55:36.088Z,4.67
2022-08-28T23:58:03.734Z,5.07
